sensor_id;sensor_type;location;lat;lon;timestamp;P1;durP1;ratioP1;P2;durP2;ratioP2
28774;SDS011;15926;51.348;6.596;2023-08-30T04:02:55;16.60;;;12.55;;
28774;SDS011;15926;51.348;6.596;2023-08-30T04:05:21;18.50;;;12.80;;
28774;SDS011;15926;51.348;6.596;2023-08-30T04:07:47;17.25;;;13.32;;
28774;SDS011;15926;51.348;6.596;2023-08-30T04:10:13;18.83;;;13.38;;
28774;SDS011;15926;51.348;6.596;2023-08-30T04:12:39;16.92;;;12.88;;
28774;SDS011;15926;51.348;6.596;2023-08-30T04:15:05;24.85;;;13.15;;
28774;SDS011;15926;51.348;6.596;2023-08-30T04:17:31;20.67;;;15.13;;
28774;SDS011;15926;51.348;6.596;2023-08-30T04:19:57;21.95;;;14.85;;
28774;SDS011;15926;51.348;6.596;2023-08-30T04:22:23;20.10;;;15.45;;
28774;SDS011;15926;51.348;6.596;2023-08-30T04:24:49;20.95;;;15.40;;
28774;SDS011;15926;51.348;6.596;2023-08-30T04:27:15;22.77;;;16.40;;
28774;SDS011;15926;51.348;6.596;2023-08-30T04:29:41;23.65;;;15.70;;
28774;SDS011;15926;51.348;6.596;2023-08-30T04:32:10;21.38;;;16.02;;
28774;SDS011;15926;51.348;6.596;2023-08-30T04:34:36;19.60;;;15.90;;
28774;SDS011;15926;51.348;6.596;2023-08-30T04:37:02;30.42;;;18.08;;
28774;SDS011;15926;51.348;6.596;2023-08-30T04:39:28;24.00;;;18.27;;
28774;SDS011;15926;51.348;6.596;2023-08-30T04:41:54;26.10;;;18.15;;
28774;SDS011;15926;51.348;6.596;2023-08-30T04:44:20;24.58;;;17.52;;
28774;SDS011;15926;51.348;6.596;2023-08-30T04:46:49;25.98;;;18.70;;
28774;SDS011;15926;51.348;6.596;2023-08-30T04:49:17;26.23;;;18.92;;
28774;SDS011;15926;51.348;6.596;2023-08-30T04:51:43;27.50;;;19.83;;
28774;SDS011;15926;51.348;6.596;2023-08-30T04:54:09;27.10;;;19.92;;
28774;SDS011;15926;51.348;6.596;2023-08-30T04:56:35;29.08;;;20.02;;
28774;SDS011;15926;51.348;6.596;2023-08-30T04:59:01;27.63;;;19.50;;
28774;SDS011;15926;51.348;6.596;2023-08-30T05:01:29;28.67;;;19.73;;
28774;SDS011;15926;51.348;6.596;2023-08-30T05:03:55;30.80;;;20.75;;
28774;SDS011;15926;51.348;6.596;2023-08-30T05:06:21;31.05;;;21.75;;
28774;SDS011;15926;51.348;6.596;2023-08-30T05:08:47;30.30;;;20.75;;
28774;SDS011;15926;51.348;6.596;2023-08-30T05:11:13;32.28;;;21.45;;
28774;SDS011;15926;51.348;6.596;2023-08-30T05:13:40;29.65;;;20.67;;
28774;SDS011;15926;51.348;6.596;2023-08-30T05:16:06;30.20;;;21.52;;
28774;SDS011;15926;51.348;6.596;2023-08-30T05:18:32;30.05;;;21.40;;
28774;SDS011;15926;51.348;6.596;2023-08-30T05:20:58;34.63;;;21.33;;
28774;SDS011;15926;51.348;6.596;2023-08-30T05:23:24;32.92;;;20.52;;
28774;SDS011;15926;51.348;6.596;2023-08-30T05:25:50;32.30;;;20.88;;
28774;SDS011;15926;51.348;6.596;2023-08-30T05:28:16;31.00;;;21.38;;
28774;SDS011;15926;51.348;6.596;2023-08-30T05:30:42;35.33;;;21.35;;
28774;SDS011;15926;51.348;6.596;2023-08-30T05:33:09;33.40;;;22.05;;
28774;SDS011;15926;51.348;6.596;2023-08-30T05:35:35;30.52;;;21.13;;
28774;SDS011;15926;51.348;6.596;2023-08-30T05:38:01;29.52;;;20.23;;
28774;SDS011;15926;51.348;6.596;2023-08-30T05:40:27;30.90;;;21.30;;
28774;SDS011;15926;51.348;6.596;2023-08-30T05:42:53;32.78;;;20.23;;
28774;SDS011;15926;51.348;6.596;2023-08-30T05:45:20;34.67;;;20.02;;
28774;SDS011;15926;51.348;6.596;2023-08-30T05:47:46;32.35;;;20.67;;
28774;SDS011;15926;51.348;6.596;2023-08-30T05:50:13;26.33;;;18.67;;
28774;SDS011;15926;51.348;6.596;2023-08-30T05:52:38;26.13;;;18.42;;
28774;SDS011;15926;51.348;6.596;2023-08-30T05:55:09;28.30;;;20.05;;
28774;SDS011;15926;51.348;6.596;2023-08-30T05:57:35;31.02;;;20.27;;
28774;SDS011;15926;51.348;6.596;2023-08-30T06:00:01;27.60;;;18.88;;
28774;SDS011;15926;51.348;6.596;2023-08-30T06:02:29;30.15;;;18.70;;
28774;SDS011;15926;51.348;6.596;2023-08-30T06:04:55;25.55;;;19.00;;
28774;SDS011;15926;51.348;6.596;2023-08-30T06:07:21;33.03;;;20.42;;
28774;SDS011;15926;51.348;6.596;2023-08-30T06:09:47;25.83;;;17.95;;
28774;SDS011;15926;51.348;6.596;2023-08-30T06:12:14;28.77;;;19.02;;
28774;SDS011;15926;51.348;6.596;2023-08-30T06:14:40;27.52;;;18.20;;
28774;SDS011;15926;51.348;6.596;2023-08-30T06:17:06;28.95;;;17.33;;
28774;SDS011;15926;51.348;6.596;2023-08-30T06:19:32;22.55;;;15.85;;
28774;SDS011;15926;51.348;6.596;2023-08-30T06:21:58;23.98;;;16.75;;
28774;SDS011;15926;51.348;6.596;2023-08-30T06:24:24;24.75;;;17.75;;
28774;SDS011;15926;51.348;6.596;2023-08-30T06:26:50;21.08;;;17.13;;
28774;SDS011;15926;51.348;6.596;2023-08-30T06:29:16;21.85;;;16.40;;
28774;SDS011;15926;51.348;6.596;2023-08-30T06:31:42;24.92;;;17.52;;
28774;SDS011;15926;51.348;6.596;2023-08-30T06:34:10;22.20;;;16.25;;
28774;SDS011;15926;51.348;6.596;2023-08-30T06:36:36;21.95;;;16.92;;
28774;SDS011;15926;51.348;6.596;2023-08-30T06:39:02;20.80;;;16.60;;
28774;SDS011;15926;51.348;6.596;2023-08-30T06:41:28;22.88;;;16.30;;
28774;SDS011;15926;51.348;6.596;2023-08-30T06:43:54;21.10;;;14.80;;
28774;SDS011;15926;51.348;6.596;2023-08-30T06:46:21;29.23;;;16.02;;
28774;SDS011;15926;51.348;6.596;2023-08-30T06:48:47;20.83;;;15.68;;
28774;SDS011;15926;51.348;6.596;2023-08-30T06:51:13;21.30;;;14.13;;
28774;SDS011;15926;51.348;6.596;2023-08-30T06:53:39;19.77;;;14.48;;
28774;SDS011;15926;51.348;6.596;2023-08-30T06:56:05;16.00;;;12.55;;
28774;SDS011;15926;51.348;6.596;2023-08-30T06:58:31;16.25;;;12.65;;
28774;SDS011;15926;51.348;6.596;2023-08-30T07:00:57;18.02;;;12.25;;
28774;SDS011;15926;51.348;6.596;2023-08-30T07:03:24;19.45;;;11.80;;
28774;SDS011;15926;51.348;6.596;2023-08-30T07:05:52;19.00;;;12.52;;
28774;SDS011;15926;51.348;6.596;2023-08-30T07:08:19;13.77;;;11.05;;
28774;SDS011;15926;51.348;6.596;2023-08-30T07:10:45;11.38;;;10.18;;
28774;SDS011;15926;51.348;6.596;2023-08-30T07:13:11;13.77;;;10.80;;
28774;SDS011;15926;51.348;6.596;2023-08-30T07:15:40;16.02;;;10.20;;
28774;SDS011;15926;51.348;6.596;2023-08-30T07:20:32;13.23;;;9.52;;
28774;SDS011;15926;51.348;6.596;2023-08-30T07:22:59;14.48;;;8.95;;
28774;SDS011;15926;51.348;6.596;2023-08-30T07:25:25;14.45;;;8.68;;
28774;SDS011;15926;51.348;6.596;2023-08-30T07:27:51;10.35;;;7.50;;
28774;SDS011;15926;51.348;6.596;2023-08-30T07:30:17;8.30;;;7.50;;
28774;SDS011;15926;51.348;6.596;2023-08-30T07:32:43;9.68;;;6.93;;
28774;SDS011;15926;51.348;6.596;2023-08-30T07:35:09;11.70;;;6.15;;
28774;SDS011;15926;51.348;6.596;2023-08-30T07:37:35;9.82;;;6.38;;
28774;SDS011;15926;51.348;6.596;2023-08-30T07:40:02;11.45;;;6.30;;
28774;SDS011;15926;51.348;6.596;2023-08-30T07:44:57;10.40;;;6.18;;
28774;SDS011;15926;51.348;6.596;2023-08-30T07:47:23;7.90;;;5.93;;
28774;SDS011;15926;51.348;6.596;2023-08-30T07:49:48;7.13;;;5.55;;
28774;SDS011;15926;51.348;6.596;2023-08-30T07:52:14;7.80;;;5.50;;
28774;SDS011;15926;51.348;6.596;2023-08-30T07:54:41;6.82;;;5.57;;
28774;SDS011;15926;51.348;6.596;2023-08-30T07:57:07;7.20;;;5.10;;
28774;SDS011;15926;51.348;6.596;2023-08-30T07:59:33;6.57;;;5.47;;
28774;SDS011;15926;51.348;6.596;2023-08-30T08:01:59;7.20;;;5.88;;
28774;SDS011;15926;51.348;6.596;2023-08-30T08:04:25;8.02;;;5.35;;
28774;SDS011;15926;51.348;6.596;2023-08-30T08:06:51;10.05;;;5.40;;
28774;SDS011;15926;51.348;6.596;2023-08-30T08:09:19;10.23;;;5.07;;
28774;SDS011;15926;51.348;6.596;2023-08-30T08:11:50;5.75;;;4.95;;
28774;SDS011;15926;51.348;6.596;2023-08-30T08:14:16;5.60;;;4.57;;
28774;SDS011;15926;51.348;6.596;2023-08-30T08:16:42;5.75;;;3.95;;
28774;SDS011;15926;51.348;6.596;2023-08-30T08:19:08;7.97;;;4.60;;
28774;SDS011;15926;51.348;6.596;2023-08-30T08:21:34;4.65;;;3.83;;
28774;SDS011;15926;51.348;6.596;2023-08-30T08:24:00;5.78;;;4.05;;
28774;SDS011;15926;51.348;6.596;2023-08-30T08:26:26;7.70;;;3.92;;
28774;SDS011;15926;51.348;6.596;2023-08-30T08:28:53;6.30;;;3.97;;
28774;SDS011;15926;51.348;6.596;2023-08-30T08:31:20;9.73;;;4.43;;
28774;SDS011;15926;51.348;6.596;2023-08-30T08:33:46;4.47;;;3.53;;
28774;SDS011;15926;51.348;6.596;2023-08-30T08:36:12;5.35;;;3.60;;
28774;SDS011;15926;51.348;6.596;2023-08-30T08:38:38;4.40;;;3.42;;
28774;SDS011;15926;51.348;6.596;2023-08-30T08:41:05;5.40;;;3.50;;
28774;SDS011;15926;51.348;6.596;2023-08-30T08:43:32;4.28;;;3.78;;
28774;SDS011;15926;51.348;6.596;2023-08-30T08:45:59;4.68;;;4.05;;
28774;SDS011;15926;51.348;6.596;2023-08-30T08:48:29;6.75;;;3.60;;
28774;SDS011;15926;51.348;6.596;2023-08-30T08:50:57;3.85;;;3.10;;
28774;SDS011;15926;51.348;6.596;2023-08-30T08:53:23;5.88;;;4.32;;
28774;SDS011;15926;51.348;6.596;2023-08-30T08:55:49;4.82;;;3.65;;
28774;SDS011;15926;51.348;6.596;2023-08-30T08:58:15;3.50;;;3.20;;
28774;SDS011;15926;51.348;6.596;2023-08-30T09:00:42;6.53;;;3.55;;
28774;SDS011;15926;51.348;6.596;2023-08-30T09:03:08;6.03;;;3.53;;
28774;SDS011;15926;51.348;6.596;2023-08-30T09:05:37;5.15;;;4.10;;
28774;SDS011;15926;51.348;6.596;2023-08-30T09:08:04;4.25;;;3.85;;
28774;SDS011;15926;51.348;6.596;2023-08-30T09:10:33;5.15;;;3.90;;
28774;SDS011;15926;51.348;6.596;2023-08-30T09:13:00;5.10;;;4.10;;
28774;SDS011;15926;51.348;6.596;2023-08-30T09:15:33;8.00;;;4.80;;
28774;SDS011;15926;51.348;6.596;2023-08-30T09:17:59;8.20;;;4.72;;
28774;SDS011;15926;51.348;6.596;2023-08-30T09:20:25;7.38;;;5.25;;
28774;SDS011;15926;51.348;6.596;2023-08-30T09:22:51;7.97;;;6.03;;
28774;SDS011;15926;51.348;6.596;2023-08-30T09:25:24;7.22;;;6.47;;
28774;SDS011;15926;51.348;6.596;2023-08-30T09:27:50;7.35;;;5.63;;
28774;SDS011;15926;51.348;6.596;2023-08-30T09:30:23;6.65;;;6.05;;
28774;SDS011;15926;51.348;6.596;2023-08-30T09:32:49;7.75;;;5.70;;
28774;SDS011;15926;51.348;6.596;2023-08-30T09:35:15;6.63;;;6.03;;
28774;SDS011;15926;51.348;6.596;2023-08-30T09:37:41;9.05;;;6.00;;
28774;SDS011;15926;51.348;6.596;2023-08-30T09:40:09;6.95;;;6.32;;
28774;SDS011;15926;51.348;6.596;2023-08-30T09:42:40;8.20;;;6.43;;
28774;SDS011;15926;51.348;6.596;2023-08-30T09:45:08;6.88;;;6.13;;
28774;SDS011;15926;51.348;6.596;2023-08-30T09:47:46;7.70;;;7.10;;
28774;SDS011;15926;51.348;6.596;2023-08-30T09:50:12;9.63;;;6.63;;
28774;SDS011;15926;51.348;6.596;2023-08-30T09:52:38;9.02;;;6.32;;
28774;SDS011;15926;51.348;6.596;2023-08-30T09:55:04;6.78;;;5.72;;
28774;SDS011;15926;51.348;6.596;2023-08-30T09:57:31;7.55;;;5.85;;
28774;SDS011;15926;51.348;6.596;2023-08-30T09:59:57;6.97;;;6.25;;
28774;SDS011;15926;51.348;6.596;2023-08-30T10:02:24;6.82;;;6.15;;
28774;SDS011;15926;51.348;6.596;2023-08-30T10:04:50;9.48;;;6.05;;
28774;SDS011;15926;51.348;6.596;2023-08-30T10:07:17;7.38;;;5.55;;
28774;SDS011;15926;51.348;6.596;2023-08-30T10:09:44;6.20;;;5.18;;
28774;SDS011;15926;51.348;6.596;2023-08-30T10:12:10;5.80;;;5.30;;
28774;SDS011;15926;51.348;6.596;2023-08-30T10:14:36;6.20;;;5.60;;
28774;SDS011;15926;51.348;6.596;2023-08-30T10:17:03;7.32;;;6.18;;
28774;SDS011;15926;51.348;6.596;2023-08-30T10:19:32;7.57;;;5.72;;
28774;SDS011;15926;51.348;6.596;2023-08-30T10:22:05;7.70;;;5.93;;
28774;SDS011;15926;51.348;6.596;2023-08-30T10:27:22;8.50;;;7.28;;
28774;SDS011;15926;51.348;6.596;2023-08-30T10:29:49;8.48;;;7.68;;
28774;SDS011;15926;51.348;6.596;2023-08-30T10:32:22;7.93;;;7.13;;
28774;SDS011;15926;51.348;6.596;2023-08-30T10:34:49;11.15;;;7.10;;
28774;SDS011;15926;51.348;6.596;2023-08-30T10:37:15;7.90;;;7.10;;
28774;SDS011;15926;51.348;6.596;2023-08-30T10:39:42;8.63;;;6.82;;
28774;SDS011;15926;51.348;6.596;2023-08-30T10:42:13;9.70;;;7.50;;
28774;SDS011;15926;51.348;6.596;2023-08-30T10:44:52;7.80;;;6.82;;
28774;SDS011;15926;51.348;6.596;2023-08-30T10:49:46;7.30;;;6.60;;
28774;SDS011;15926;51.348;6.596;2023-08-30T10:52:12;6.28;;;5.68;;
28774;SDS011;15926;51.348;6.596;2023-08-30T10:54:38;6.80;;;5.85;;
28774;SDS011;15926;51.348;6.596;2023-08-30T10:57:04;6.32;;;5.43;;
28774;SDS011;15926;51.348;6.596;2023-08-30T10:59:30;5.90;;;4.55;;
28774;SDS011;15926;51.348;6.596;2023-08-30T11:01:56;7.57;;;5.10;;
28774;SDS011;15926;51.348;6.596;2023-08-30T11:04:28;6.82;;;4.85;;
28774;SDS011;15926;51.348;6.596;2023-08-30T11:06:54;5.72;;;4.03;;
28774;SDS011;15926;51.348;6.596;2023-08-30T11:09:21;4.70;;;4.25;;
28774;SDS011;15926;51.348;6.596;2023-08-30T11:11:48;4.88;;;4.38;;
28774;SDS011;15926;51.348;6.596;2023-08-30T11:14:16;5.60;;;4.57;;
28774;SDS011;15926;51.348;6.596;2023-08-30T11:16:42;6.20;;;4.15;;
28774;SDS011;15926;51.348;6.596;2023-08-30T11:19:08;4.80;;;4.28;;
28774;SDS011;15926;51.348;6.596;2023-08-30T11:21:36;4.38;;;3.92;;
28774;SDS011;15926;51.348;6.596;2023-08-30T11:24:03;4.40;;;4.00;;
28774;SDS011;15926;51.348;6.596;2023-08-30T11:26:29;3.97;;;3.58;;
28774;SDS011;15926;51.348;6.596;2023-08-30T11:28:55;4.90;;;4.40;;
28774;SDS011;15926;51.348;6.596;2023-08-30T11:31:21;4.30;;;3.90;;
28774;SDS011;15926;51.348;6.596;2023-08-30T11:33:54;4.20;;;3.88;;
28774;SDS011;15926;51.348;6.596;2023-08-30T11:36:21;5.05;;;4.40;;
28774;SDS011;15926;51.348;6.596;2023-08-30T11:38:48;5.38;;;3.90;;
28774;SDS011;15926;51.348;6.596;2023-08-30T11:41:13;4.00;;;3.60;;
28774;SDS011;15926;51.348;6.596;2023-08-30T11:43:39;3.55;;;3.28;;
28774;SDS011;15926;51.348;6.596;2023-08-30T11:46:06;4.40;;;3.28;;
28774;SDS011;15926;51.348;6.596;2023-08-30T11:48:32;3.88;;;3.42;;
28774;SDS011;15926;51.348;6.596;2023-08-30T11:50:58;5.72;;;3.50;;
28774;SDS011;15926;51.348;6.596;2023-08-30T11:53:24;3.38;;;3.10;;
28774;SDS011;15926;51.348;6.596;2023-08-30T11:55:51;3.38;;;3.17;;
28774;SDS011;15926;51.348;6.596;2023-08-30T11:58:20;4.18;;;3.33;;
28774;SDS011;15926;51.348;6.596;2023-08-30T12:00:48;3.33;;;3.00;;
28774;SDS011;15926;51.348;6.596;2023-08-30T12:03:15;3.67;;;3.38;;
28774;SDS011;15926;51.348;6.596;2023-08-30T12:05:45;3.75;;;3.45;;
28774;SDS011;15926;51.348;6.596;2023-08-30T12:08:18;3.45;;;3.10;;
28774;SDS011;15926;51.348;6.596;2023-08-30T12:10:44;3.60;;;3.30;;
28774;SDS011;15926;51.348;6.596;2023-08-30T12:13:23;3.47;;;3.13;;
28774;SDS011;15926;51.348;6.596;2023-08-30T12:15:50;3.22;;;2.97;;
28774;SDS011;15926;51.348;6.596;2023-08-30T12:18:17;4.15;;;3.03;;
28774;SDS011;15926;51.348;6.596;2023-08-30T12:20:53;3.78;;;3.53;;
28774;SDS011;15926;51.348;6.596;2023-08-30T12:23:22;3.85;;;3.55;;
28774;SDS011;15926;51.348;6.596;2023-08-30T12:25:59;4.43;;;4.03;;
28774;SDS011;15926;51.348;6.596;2023-08-30T12:28:25;4.45;;;4.05;;
28774;SDS011;15926;51.348;6.596;2023-08-30T12:30:52;3.95;;;3.55;;
28774;SDS011;15926;51.348;6.596;2023-08-30T12:33:18;3.83;;;3.58;;
28774;SDS011;15926;51.348;6.596;2023-08-30T12:35:44;4.65;;;4.22;;
28774;SDS011;15926;51.348;6.596;2023-08-30T12:38:10;5.50;;;4.60;;
28774;SDS011;15926;51.348;6.596;2023-08-30T12:40:45;5.05;;;4.35;;
28774;SDS011;15926;51.348;6.596;2023-08-30T12:45:38;5.28;;;4.53;;
28774;SDS011;15926;51.348;6.596;2023-08-30T12:48:05;4.57;;;4.10;;
28774;SDS011;15926;51.348;6.596;2023-08-30T12:50:31;5.80;;;4.30;;
28774;SDS011;15926;51.348;6.596;2023-08-30T12:52:57;4.63;;;4.25;;
28774;SDS011;15926;51.348;6.596;2023-08-30T12:55:23;4.60;;;4.20;;
28774;SDS011;15926;51.348;6.596;2023-08-30T12:57:49;6.13;;;4.65;;
28774;SDS011;15926;51.348;6.596;2023-08-30T13:00:15;5.13;;;4.63;;
28774;SDS011;15926;51.348;6.596;2023-08-30T13:02:41;5.20;;;4.70;;
28774;SDS011;15926;51.348;6.596;2023-08-30T13:05:07;5.50;;;4.18;;
28774;SDS011;15926;51.348;6.596;2023-08-30T13:07:33;4.95;;;4.53;;
28774;SDS011;15926;51.348;6.596;2023-08-30T13:09:59;4.78;;;4.30;;
28774;SDS011;15926;51.348;6.596;2023-08-30T13:12:25;4.10;;;3.80;;
28774;SDS011;15926;51.348;6.596;2023-08-30T13:14:51;5.57;;;3.88;;
28774;SDS011;15926;51.348;6.596;2023-08-30T13:17:17;4.75;;;4.43;;
28774;SDS011;15926;51.348;6.596;2023-08-30T13:19:43;4.95;;;4.35;;
28774;SDS011;15926;51.348;6.596;2023-08-30T13:22:09;4.35;;;3.60;;
28774;SDS011;15926;51.348;6.596;2023-08-30T13:24:36;4.43;;;3.65;;
28774;SDS011;15926;51.348;6.596;2023-08-30T13:27:02;4.38;;;3.97;;
28774;SDS011;15926;51.348;6.596;2023-08-30T13:29:28;7.13;;;4.00;;
28774;SDS011;15926;51.348;6.596;2023-08-30T13:31:54;4.60;;;4.20;;
28774;SDS011;15926;51.348;6.596;2023-08-30T13:34:20;3.97;;;3.67;;
28774;SDS011;15926;51.348;6.596;2023-08-30T13:36:46;4.10;;;3.70;;
28774;SDS011;15926;51.348;6.596;2023-08-30T13:39:12;3.70;;;3.47;;
28774;SDS011;15926;51.348;6.596;2023-08-30T13:41:39;3.63;;;3.33;;
28774;SDS011;15926;51.348;6.596;2023-08-30T13:44:05;6.15;;;3.72;;
28774;SDS011;15926;51.348;6.596;2023-08-30T13:46:31;3.95;;;3.67;;
28774;SDS011;15926;51.348;6.596;2023-08-30T13:48:58;3.88;;;3.47;;
28774;SDS011;15926;51.348;6.596;2023-08-30T13:51:24;3.72;;;3.42;;
28774;SDS011;15926;51.348;6.596;2023-08-30T13:53:51;3.85;;;3.53;;
28774;SDS011;15926;51.348;6.596;2023-08-30T13:56:17;4.50;;;4.20;;
28774;SDS011;15926;51.348;6.596;2023-08-30T13:58:44;5.15;;;4.00;;
28774;SDS011;15926;51.348;6.596;2023-08-30T14:01:10;4.13;;;3.83;;
28774;SDS011;15926;51.348;6.596;2023-08-30T14:03:36;5.63;;;4.38;;
28774;SDS011;15926;51.348;6.596;2023-08-30T14:06:02;5.38;;;4.35;;
28774;SDS011;15926;51.348;6.596;2023-08-30T14:08:28;4.60;;;4.20;;
28774;SDS011;15926;51.348;6.596;2023-08-30T14:10:54;4.65;;;4.22;;
28774;SDS011;15926;51.348;6.596;2023-08-30T14:13:20;4.78;;;4.38;;
28774;SDS011;15926;51.348;6.596;2023-08-30T14:15:46;6.22;;;4.22;;
28774;SDS011;15926;51.348;6.596;2023-08-30T14:18:13;4.97;;;4.13;;
28774;SDS011;15926;51.348;6.596;2023-08-30T14:20:40;4.18;;;3.88;;
28774;SDS011;15926;51.348;6.596;2023-08-30T14:23:06;5.57;;;4.63;;
28774;SDS011;15926;51.348;6.596;2023-08-30T14:25:32;6.20;;;4.53;;
28774;SDS011;15926;51.348;6.596;2023-08-30T14:27:59;6.20;;;5.70;;
28774;SDS011;15926;51.348;6.596;2023-08-30T14:30:25;6.45;;;5.28;;
28774;SDS011;15926;51.348;6.596;2023-08-30T14:32:51;6.13;;;5.53;;
28774;SDS011;15926;51.348;6.596;2023-08-30T14:35:18;7.55;;;5.95;;
28774;SDS011;15926;51.348;6.596;2023-08-30T14:37:49;7.05;;;6.40;;
28774;SDS011;15926;51.348;6.596;2023-08-30T14:40:15;6.93;;;6.28;;
28774;SDS011;15926;51.348;6.596;2023-08-30T14:42:41;7.13;;;6.43;;
28774;SDS011;15926;51.348;6.596;2023-08-30T14:45:08;6.82;;;6.22;;
28774;SDS011;15926;51.348;6.596;2023-08-30T14:47:34;6.63;;;6.05;;
28774;SDS011;15926;51.348;6.596;2023-08-30T14:50:00;6.80;;;5.57;;
28774;SDS011;15926;51.348;6.596;2023-08-30T14:52:27;6.45;;;5.95;;
28774;SDS011;15926;51.348;6.596;2023-08-30T14:54:53;7.25;;;6.28;;
28774;SDS011;15926;51.348;6.596;2023-08-30T14:57:19;7.72;;;6.57;;
28774;SDS011;15926;51.348;6.596;2023-08-30T14:59:46;7.10;;;5.93;;
28774;SDS011;15926;51.348;6.596;2023-08-30T15:02:12;6.47;;;5.90;;
28774;SDS011;15926;51.348;6.596;2023-08-30T15:04:39;6.15;;;5.60;;
28774;SDS011;15926;51.348;6.596;2023-08-30T15:07:05;5.82;;;5.43;;
28774;SDS011;15926;51.348;6.596;2023-08-30T15:09:31;5.82;;;5.32;;
28774;SDS011;15926;51.348;6.596;2023-08-30T15:11:57;5.55;;;5.15;;
28774;SDS011;15926;51.348;6.596;2023-08-30T15:14:25;5.40;;;4.95;;
28774;SDS011;15926;51.348;6.596;2023-08-30T15:16:51;5.22;;;4.72;;
28774;SDS011;15926;51.348;6.596;2023-08-30T15:19:18;4.32;;;4.03;;
28774;SDS011;15926;51.348;6.596;2023-08-30T15:21:44;4.30;;;3.72;;
28774;SDS011;15926;51.348;6.596;2023-08-30T15:24:11;4.85;;;4.43;;
28774;SDS011;15926;51.348;6.596;2023-08-30T15:26:37;4.18;;;3.80;;
28774;SDS011;15926;51.348;6.596;2023-08-30T15:29:03;5.05;;;4.32;;
28774;SDS011;15926;51.348;6.596;2023-08-30T15:31:29;4.13;;;3.72;;
28774;SDS011;15926;51.348;6.596;2023-08-30T15:33:55;4.82;;;4.40;;
28774;SDS011;15926;51.348;6.596;2023-08-30T15:36:21;5.55;;;5.00;;
28774;SDS011;15926;51.348;6.596;2023-08-30T15:38:47;4.43;;;4.03;;
28774;SDS011;15926;51.348;6.596;2023-08-30T15:41:14;4.35;;;4.03;;
28774;SDS011;15926;51.348;6.596;2023-08-30T15:43:41;6.13;;;4.60;;
28774;SDS011;15926;51.348;6.596;2023-08-30T15:46:08;5.18;;;4.18;;
28774;SDS011;15926;51.348;6.596;2023-08-30T15:48:34;4.38;;;3.97;;
28774;SDS011;15926;51.348;6.596;2023-08-30T15:51:01;4.05;;;3.67;;
28774;SDS011;15926;51.348;6.596;2023-08-30T15:53:27;5.25;;;4.60;;
28774;SDS011;15926;51.348;6.596;2023-08-30T15:55:53;5.50;;;4.30;;
28774;SDS011;15926;51.348;6.596;2023-08-30T15:58:19;6.80;;;4.07;;
28774;SDS011;15926;51.348;6.596;2023-08-30T16:00:45;5.13;;;3.83;;
28774;SDS011;15926;51.348;6.596;2023-08-30T16:03:13;4.35;;;3.95;;
28774;SDS011;15926;51.348;6.596;2023-08-30T16:05:40;4.90;;;4.22;;
28774;SDS011;15926;51.348;6.596;2023-08-30T16:08:06;7.15;;;4.35;;
28774;SDS011;15926;51.348;6.596;2023-08-30T16:10:32;4.80;;;4.38;;
28774;SDS011;15926;51.348;6.596;2023-08-30T16:12:58;4.93;;;4.45;;
28774;SDS011;15926;51.348;6.596;2023-08-30T16:15:25;5.15;;;3.95;;
28774;SDS011;15926;51.348;6.596;2023-08-30T16:20:19;6.70;;;4.72;;
28774;SDS011;15926;51.348;6.596;2023-08-30T16:22:45;9.00;;;4.57;;
28774;SDS011;15926;51.348;6.596;2023-08-30T16:25:11;6.63;;;4.50;;
28774;SDS011;15926;51.348;6.596;2023-08-30T16:27:37;5.38;;;4.38;;
28774;SDS011;15926;51.348;6.596;2023-08-30T16:30:04;6.03;;;4.00;;
28774;SDS011;15926;51.348;6.596;2023-08-30T16:32:30;6.20;;;4.10;;
28774;SDS011;15926;51.348;6.596;2023-08-30T16:34:56;6.00;;;4.05;;
28774;SDS011;15926;51.348;6.596;2023-08-30T16:37:22;4.95;;;4.40;;
28774;SDS011;15926;51.348;6.596;2023-08-30T16:39:48;5.38;;;4.80;;
28774;SDS011;15926;51.348;6.596;2023-08-30T16:42:14;4.60;;;4.20;;
28774;SDS011;15926;51.348;6.596;2023-08-30T16:44:41;7.13;;;4.40;;
28774;SDS011;15926;51.348;6.596;2023-08-30T16:47:09;4.43;;;3.85;;
28774;SDS011;15926;51.348;6.596;2023-08-30T16:49:35;7.40;;;3.50;;
28774;SDS011;15926;51.348;6.596;2023-08-30T16:52:01;6.63;;;3.58;;
28774;SDS011;15926;51.348;6.596;2023-08-30T16:54:27;4.07;;;2.83;;
28774;SDS011;15926;51.348;6.596;2023-08-30T16:56:53;4.93;;;2.20;;
28774;SDS011;15926;51.348;6.596;2023-08-30T16:59:19;3.28;;;1.25;;
28774;SDS011;15926;51.348;6.596;2023-08-30T17:01:45;3.60;;;1.20;;
28774;SDS011;15926;51.348;6.596;2023-08-30T17:04:11;3.75;;;1.10;;
28774;SDS011;15926;51.348;6.596;2023-08-30T17:06:38;3.25;;;1.38;;
28774;SDS011;15926;51.348;6.596;2023-08-30T17:09:05;3.85;;;1.10;;
28774;SDS011;15926;51.348;6.596;2023-08-30T17:11:31;5.07;;;1.48;;
28774;SDS011;15926;51.348;6.596;2023-08-30T17:14:03;4.75;;;1.42;;
28774;SDS011;15926;51.348;6.596;2023-08-30T17:16:29;3.08;;;1.25;;
28774;SDS011;15926;51.348;6.596;2023-08-30T17:18:55;4.63;;;1.30;;
28774;SDS011;15926;51.348;6.596;2023-08-30T17:21:21;3.42;;;1.17;;
28774;SDS011;15926;51.348;6.596;2023-08-30T17:23:47;4.70;;;1.48;;
28774;SDS011;15926;51.348;6.596;2023-08-30T17:26:13;5.40;;;1.15;;
28774;SDS011;15926;51.348;6.596;2023-08-30T17:28:39;3.75;;;1.10;;
28774;SDS011;15926;51.348;6.596;2023-08-30T17:31:05;3.78;;;1.20;;
28774;SDS011;15926;51.348;6.596;2023-08-30T17:33:32;8.43;;;1.70;;
28774;SDS011;15926;51.348;6.596;2023-08-30T17:35:58;3.10;;;1.55;;
28774;SDS011;15926;51.348;6.596;2023-08-30T17:38:28;4.22;;;1.48;;
28774;SDS011;15926;51.348;6.596;2023-08-30T17:40:54;5.28;;;1.73;;
28774;SDS011;15926;51.348;6.596;2023-08-30T17:43:20;3.75;;;1.40;;
28774;SDS011;15926;51.348;6.596;2023-08-30T17:45:46;6.15;;;1.52;;
28774;SDS011;15926;51.348;6.596;2023-08-30T17:48:12;6.10;;;1.50;;
28774;SDS011;15926;51.348;6.596;2023-08-30T17:50:42;3.05;;;1.42;;
28774;SDS011;15926;51.348;6.596;2023-08-30T17:53:11;4.00;;;1.83;;
28774;SDS011;15926;51.348;6.596;2023-08-30T17:55:38;6.25;;;1.50;;
28774;SDS011;15926;51.348;6.596;2023-08-30T17:58:07;4.88;;;2.00;;
28774;SDS011;15926;51.348;6.596;2023-08-30T18:00:33;6.50;;;1.60;;
28774;SDS011;15926;51.348;6.596;2023-08-30T18:02:59;4.80;;;1.80;;
28774;SDS011;15926;51.348;6.596;2023-08-30T18:05:25;4.45;;;2.03;;
28774;SDS011;15926;51.348;6.596;2023-08-30T18:07:53;5.68;;;2.17;;
28774;SDS011;15926;51.348;6.596;2023-08-30T18:10:21;4.97;;;1.55;;
28774;SDS011;15926;51.348;6.596;2023-08-30T18:12:48;4.63;;;2.20;;
28774;SDS011;15926;51.348;6.596;2023-08-30T18:15:15;3.38;;;1.80;;
28774;SDS011;15926;51.348;6.596;2023-08-30T18:17:42;6.65;;;2.75;;
28774;SDS011;15926;51.348;6.596;2023-08-30T18:20:08;6.55;;;2.60;;
28774;SDS011;15926;51.348;6.596;2023-08-30T18:22:34;6.22;;;2.65;;
28774;SDS011;15926;51.348;6.596;2023-08-30T18:25:01;5.85;;;3.25;;
28774;SDS011;15926;51.348;6.596;2023-08-30T18:27:29;4.23;;;2.07;;
28774;SDS011;15926;51.348;6.596;2023-08-30T18:29:55;3.97;;;1.95;;
28774;SDS011;15926;51.348;6.596;2023-08-30T18:32:21;7.80;;;2.20;;
28774;SDS011;15926;51.348;6.596;2023-08-30T18:34:47;3.53;;;2.50;;
28774;SDS011;15926;51.348;6.596;2023-08-30T18:37:13;4.63;;;2.13;;
28774;SDS011;15926;51.348;6.596;2023-08-30T18:39:40;8.02;;;2.70;;
28774;SDS011;15926;51.348;6.596;2023-08-30T18:42:06;6.30;;;2.03;;
28774;SDS011;15926;51.348;6.596;2023-08-30T18:44:32;9.23;;;2.55;;
28774;SDS011;15926;51.348;6.596;2023-08-30T18:46:58;2.28;;;2.05;;
28774;SDS011;15926;51.348;6.596;2023-08-30T18:49:24;6.20;;;2.25;;
28774;SDS011;15926;51.348;6.596;2023-08-30T18:51:50;2.83;;;2.47;;
28774;SDS011;15926;51.348;6.596;2023-08-30T18:54:17;5.15;;;2.50;;